Newvida — V7KQ7 — position and weather

sailwx.info

Track history (hours):
 
Tides and Currents Weather Stations Pressure Air Temp Water Temp Dewpoint Dewpoint Depression Visibility Wind Speed Wind Dir Waves Ship Positions

Newvida

Last reported at 2017-Sep-21 07:54 UTC. Time now 2017-Sep-23 18:35 UTC.
Position N 28°28' W 016°15'.

Length 56 m; draft 2.4 m.

Type: Pleasure craft. MMSI: 538080049.

Date/timePositionNaut miles runAvg speedWind from/ knotsBaromVisibWave heightAir tempDewpointWater temp
2017-Sep-21 07:54N 28°28' W 016°15'1 0.9
2017-Sep-21 07:00N 28°27' W 016°14'3 6.5
2017-Sep-21 06:30N 28°28' W 016°10'  
2017-Sep-17 02:06N 37°17' W 000°58'411.1
2017-Sep-17 01:46N 37°19' W 000°55'311.1
2017-Sep-17 01:30N 37°21' W 000°52'611.3
2017-Sep-17 01:00N 37°25' W 000°47'711.4
2017-Sep-17 00:26N 37°30' W 000°41'511.5
2017-Sep-16 23:58N 37°33' W 000°36'511.2
2017-Sep-16 23:30N 37°37' W 000°31'611.2
2017-Sep-16 22:58N 37°42' W 000°27'  
2017-Sep-14 18:40N 41°00' E 001°40'212.0
2017-Sep-14 18:30N 41°01' E 001°43'13610.8
2017-Sep-14 05:54N 42°22' E 004°10'611.6
2017-Sep-14 05:21N 42°27' E 004°15'411.6
2017-Sep-14 05:00N 42°30' E 004°19'611.6
2017-Sep-14 04:31N 42°34' E 004°24'611.4
2017-Sep-14 04:00N 42°39' E 004°29'611.2
2017-Sep-14 03:30N 42°42' E 004°35'611.6
2017-Sep-14 02:59N 42°45' E 004°42'711.7
2017-Sep-14 02:24N 42°49' E 004°50'511.5
2017-Sep-14 02:00N 42°51' E 004°55'611.5
2017-Sep-14 01:27N 42°54' E 005°03'711.8
2017-Sep-14 00:51N 42°57' E 005°12'411.7
2017-Sep-14 00:30N 42°59' E 005°17'74 9.6
2017-Sep-13 16:49N 43°12' E 006°56'4 9.3
2017-Sep-13 16:24N 43°16' E 006°59'510.8
2017-Sep-13 15:59N 43°20' E 007°01'511.2
2017-Sep-13 15:30N 43°25' E 007°05'711.1
2017-Sep-13 14:55N 43°30' E 007°09'410.0
2017-Sep-13 14:29N 43°35' E 007°09'1 0.4
2017-Sep-13 11:28N 43°36' E 007°09'  
Track history (hours):
 
Tides and Currents Weather Stations Pressure Air Temp Water Temp Dewpoint Dewpoint Depression Visibility Wind Speed Wind Dir Waves Ship Positions

Newvida

Last reported at 2017-Sep-21 07:54 UTC. Time now 2017-Sep-23 18:35 UTC.
Position N 28°28' W 016°15'.

Length 56 m; draft 2.4 m.

Type: Pleasure craft. MMSI: 538080049.

Date/timePositionNaut miles runAvg speedWind from/ knotsBaromVisibWave heightAir tempDewpointWater temp
2017-Sep-21 07:54N 28°28' W 016°15'1 0.9
2017-Sep-21 07:00N 28°27' W 016°14'3 6.5
2017-Sep-21 06:30N 28°28' W 016°10'  
2017-Sep-17 02:06N 37°17' W 000°58'411.1
2017-Sep-17 01:46N 37°19' W 000°55'311.1
2017-Sep-17 01:30N 37°21' W 000°52'611.3
2017-Sep-17 01:00N 37°25' W 000°47'711.4
2017-Sep-17 00:26N 37°30' W 000°41'511.5
2017-Sep-16 23:58N 37°33' W 000°36'511.2
2017-Sep-16 23:30N 37°37' W 000°31'611.2
2017-Sep-16 22:58N 37°42' W 000°27'  
2017-Sep-14 18:40N 41°00' E 001°40'212.0
2017-Sep-14 18:30N 41°01' E 001°43'13610.8
2017-Sep-14 05:54N 42°22' E 004°10'611.6
2017-Sep-14 05:21N 42°27' E 004°15'411.6
2017-Sep-14 05:00N 42°30' E 004°19'611.6
2017-Sep-14 04:31N 42°34' E 004°24'611.4
2017-Sep-14 04:00N 42°39' E 004°29'611.2
2017-Sep-14 03:30N 42°42' E 004°35'611.6
2017-Sep-14 02:59N 42°45' E 004°42'711.7
2017-Sep-14 02:24N 42°49' E 004°50'511.5
2017-Sep-14 02:00N 42°51' E 004°55'611.5
2017-Sep-14 01:27N 42°54' E 005°03'711.8
2017-Sep-14 00:51N 42°57' E 005°12'411.7
2017-Sep-14 00:30N 42°59' E 005°17'74 9.6
2017-Sep-13 16:49N 43°12' E 006°56'4 9.3
2017-Sep-13 16:24N 43°16' E 006°59'510.8
2017-Sep-13 15:59N 43°20' E 007°01'511.2
2017-Sep-13 15:30N 43°25' E 007°05'711.1
2017-Sep-13 14:55N 43°30' E 007°09'410.0
2017-Sep-13 14:29N 43°35' E 007°09'1 0.4
2017-Sep-13 11:28N 43°36' E 007°09'  

Dump ship's entire track history